PWSweather.com
Personal Weather Stations
Station Observations
INORDPAS37
Bondues, BonduesFR 59910

BonduesBonduesFR 59910

Lat: 50.7, Lon: 3.09

Elevation: 102

Station Type: Netatmo

http://bondues.meteoamikuze.com

High Low Average
Temperature 46.0°F7.8°C 41.2°F5.1°C 43.0°F6.1°C
Dew Point 34.7°F1.5°C 31.6°F-0.2°C 33.2°F0.7°C
Winds 11.2 mph 18.0 kmh 1.3 mph 2.1 kmh 5.0 mph SW8.0 kmh SW
Wind Gusts 25.5 mph41.0 kmh 1.8 mph2.9 kmh 12.0 mph19.3 kmh
Humidity 77% 69% 74%
Pressure 29.69 in1005.4 mb 29.37 in994.6 mb -
Precipitation 0.22 in5.6 mm - -
Hour Temp Dew Point Humidity Winds Wind Gusts Pressure Precip Precip Rate Daily Precip Total
12:01 AM 45.5°F7.5°C 34.3°F1.3°C 70% 5.6 mph WSW9.0 kmh WSW 11.9 mph19.2 kmh 29.53 in1000.0 mb 0.04 in1.0 mm 2.39 in60.7 mm 0.00 in0.0 mm
12:28 AM 45.5°F7.5°C 34.7°F1.5°C 71% 9.4 mph WSW15.1 kmh WSW 23.0 mph37.0 kmh 29.52 in999.7 mb 0.04 in1.0 mm 0.00 in0.0 mm 0.01 in0.3 mm
12:48 AM 46.0°F7.8°C 34.7°F1.5°C 70% 10.5 mph SW16.9 kmh SW 25.5 mph41.0 kmh 29.52 in999.7 mb 0.02 in0.5 mm 0.00 in0.0 mm 0.01 in0.3 mm
01:09 AM 45.7°F7.6°C 34.0°F1.1°C 69% 11.2 mph SW18.0 kmh SW 23.7 mph38.1 kmh 29.54 in1000.3 mb 0.00 in0.0 mm 0.00 in0.0 mm 0.01 in0.3 mm
01:28 AM 45.3°F7.4°C 34.2°F1.2°C 70% 8.1 mph WSW13.0 kmh WSW 15.4 mph24.8 kmh 29.54 in1000.3 mb 0.00 in0.0 mm 0.00 in0.0 mm 0.01 in0.3 mm
01:49 AM 45.1°F7.3°C 34.3°F1.3°C 71% 8.1 mph WSW13.0 kmh WSW 18.1 mph29.1 kmh 29.55 in1000.7 mb 0.00 in0.0 mm 0.01 in0.3 mm 0.01 in0.3 mm
02:15 AM 45.1°F7.3°C 34.3°F1.3°C 71% 8.1 mph WSW13.0 kmh WSW 19.9 mph32.0 kmh 29.57 in1001.4 mb 0.00 in0.0 mm 0.00 in0.0 mm 0.01 in0.3 mm
02:35 AM 45.0°F7.2°C 34.2°F1.2°C 71% 8.7 mph WSW14.0 kmh WSW 20.6 mph33.2 kmh 29.57 in1001.4 mb 0.00 in0.0 mm 0.00 in0.0 mm 0.01 in0.3 mm
02:55 AM 44.6°F7.0°C 33.8°F1.0°C 71% 8.1 mph WSW13.0 kmh WSW 20.6 mph33.2 kmh 29.58 in1001.7 mb 0.00 in0.0 mm 0.00 in0.0 mm 0.01 in0.3 mm
03:15 AM 44.4°F6.9°C 33.6°F0.9°C 71% 8.7 mph WSW14.0 kmh WSW 23.0 mph37.0 kmh 29.59 in1002.0 mb 0.00 in0.0 mm 0.00 in0.0 mm 0.01 in0.3 mm
03:35 AM 44.1°F6.7°C 33.3°F0.7°C 71% 8.1 mph WSW13.0 kmh WSW 15.0 mph24.1 kmh 29.60 in1002.4 mb 0.00 in0.0 mm 0.01 in0.3 mm 0.02 in0.5 mm
03:55 AM 43.9°F6.6°C 33.1°F0.6°C 71% 7.4 mph SW11.9 kmh SW 16.1 mph25.9 kmh 29.61 in1002.7 mb 0.00 in0.0 mm 0.00 in0.0 mm 0.02 in0.5 mm
04:15 AM 43.7°F6.5°C 32.9°F0.5°C 71% 6.9 mph SW11.1 kmh SW 14.3 mph23.0 kmh 29.61 in1002.7 mb 0.00 in0.0 mm 0.00 in0.0 mm 0.02 in0.5 mm
04:29 AM 43.2°F6.2°C 32.7°F0.4°C 72% 7.4 mph SW11.9 kmh SW 19.9 mph32.0 kmh 29.62 in1003.0 mb 0.00 in0.0 mm 0.00 in0.0 mm 0.02 in0.5 mm
04:48 AM 43.2°F6.2°C 32.7°F0.4°C 72% 6.9 mph SW11.1 kmh SW 14.3 mph23.0 kmh 29.62 in1003.0 mb 0.00 in0.0 mm 0.00 in0.0 mm 0.02 in0.5 mm
05:09 AM 43.0°F6.1°C 32.5°F0.3°C 72% 5.6 mph SW9.0 kmh SW 9.8 mph15.8 kmh 29.62 in1003.0 mb 0.00 in0.0 mm 0.00 in0.0 mm 0.02 in0.5 mm
05:35 AM 42.8°F6.0°C 32.4°F0.2°C 72% 3.1 mph SW5.0 kmh SW 10.5 mph16.9 kmh 29.63 in1003.4 mb 0.00 in0.0 mm 0.00 in0.0 mm 0.02 in0.5 mm
05:55 AM 43.0°F6.1°C 32.5°F0.3°C 72% 4.9 mph SW7.9 kmh SW 11.9 mph19.2 kmh 29.64 in1003.7 mb 0.00 in0.0 mm 0.00 in0.0 mm 0.02 in0.5 mm
06:08 AM 43.5°F6.4°C 33.4°F0.8°C 73% 8.1 mph WSW13.0 kmh WSW 16.1 mph25.9 kmh 29.65 in1004.1 mb 0.00 in0.0 mm 0.00 in0.0 mm 0.02 in0.5 mm
06:28 AM 42.8°F6.0°C 32.4°F0.2°C 72% 4.9 mph WSW7.9 kmh WSW 11.2 mph18.0 kmh 29.64 in1003.7 mb 0.00 in0.0 mm 0.01 in0.3 mm 0.02 in0.5 mm
06:49 AM 42.4°F5.8°C 32.4°F0.2°C 73% 5.6 mph SW9.0 kmh SW 11.9 mph19.2 kmh 29.64 in1003.7 mb 0.00 in0.0 mm 0.00 in0.0 mm 0.02 in0.5 mm
07:09 AM 42.3°F5.7°C 32.2°F0.1°C 73% 4.3 mph SW6.9 kmh SW 11.9 mph19.2 kmh 29.64 in1003.7 mb 0.00 in0.0 mm 0.00 in0.0 mm 0.02 in0.5 mm
07:29 AM 42.6°F5.9°C 32.5°F0.3°C 73% 6.9 mph WSW11.1 kmh WSW 13.6 mph21.9 kmh 29.66 in1004.4 mb 0.01 in0.3 mm 0.01 in0.3 mm 0.03 in0.8 mm
07:43 AM 42.4°F5.8°C 32.4°F0.2°C 73% 4.9 mph SW7.9 kmh SW 11.9 mph19.2 kmh 29.65 in1004.1 mb 0.02 in0.5 mm 0.03 in0.8 mm 0.04 in1.0 mm
08:03 AM 42.3°F5.7°C 32.2°F0.1°C 73% 3.8 mph WSW6.1 kmh WSW 11.2 mph18.0 kmh 29.64 in1003.7 mb 0.03 in0.8 mm 0.02 in0.5 mm 0.05 in1.3 mm
08:24 AM 41.9°F5.5°C 32.0°F0.0°C 73% 4.3 mph SW6.9 kmh SW 11.9 mph19.2 kmh 29.65 in1004.1 mb 0.02 in0.5 mm 0.00 in0.0 mm 0.05 in1.3 mm
08:43 AM 41.7°F5.4°C 31.8°F-0.1°C 73% 3.8 mph SW6.1 kmh SW 11.2 mph18.0 kmh 29.64 in1003.7 mb 0.00 in0.0 mm 0.00 in0.0 mm 0.05 in1.3 mm
09:04 AM 41.5°F5.3°C 31.6°F-0.2°C 73% 4.3 mph SW6.9 kmh SW 9.8 mph15.8 kmh 29.64 in1003.7 mb 0.00 in0.0 mm 0.00 in0.0 mm 0.05 in1.3 mm
09:24 AM 41.5°F5.3°C 31.6°F-0.2°C 73% 4.3 mph SW6.9 kmh SW 11.2 mph18.0 kmh 29.62 in1003.0 mb 0.00 in0.0 mm 0.00 in0.0 mm 0.05 in1.3 mm
09:55 AM 41.5°F5.3°C 31.6°F-0.2°C 73% 4.3 mph SW6.9 kmh SW 8.7 mph14.0 kmh 29.62 in1003.0 mb 0.00 in0.0 mm 0.00 in0.0 mm 0.05 in1.3 mm
10:15 AM 41.5°F5.3°C 31.6°F-0.2°C 73% 3.8 mph SW6.1 kmh SW 13.6 mph21.9 kmh 29.62 in1003.0 mb 0.00 in0.0 mm 0.00 in0.0 mm 0.05 in1.3 mm
10:35 AM 41.9°F5.5°C 32.0°F0.0°C 73% 3.1 mph S5.0 kmh S 8.1 mph13.0 kmh 29.60 in1002.4 mb 0.00 in0.0 mm 0.00 in0.0 mm 0.05 in1.3 mm
10:55 AM 42.3°F5.7°C 32.2°F0.1°C 73% 4.3 mph SW6.9 kmh SW 11.2 mph18.0 kmh 29.59 in1002.0 mb 0.00 in0.0 mm 0.00 in0.0 mm 0.05 in1.3 mm
11:15 AM 42.6°F5.9°C 32.5°F0.3°C 73% 4.3 mph SSW6.9 kmh SSW 8.7 mph14.0 kmh 29.58 in1001.7 mb 0.00 in0.0 mm 0.00 in0.0 mm 0.05 in1.3 mm
11:35 AM 43.0°F6.1°C 32.9°F0.5°C 73% 3.8 mph SSW6.1 kmh SSW 12.5 mph20.1 kmh 29.57 in1001.4 mb 0.00 in0.0 mm 0.00 in0.0 mm 0.05 in1.3 mm
11:41 AM 43.2°F6.2°C 33.1°F0.6°C 73% 3.8 mph S6.1 kmh S 8.1 mph13.0 kmh 29.54 in1000.3 mb 0.00 in0.0 mm 0.00 in0.0 mm 0.05 in1.3 mm
12:01 PM 43.5°F6.4°C 33.4°F0.8°C 73% 4.3 mph SW6.9 kmh SW 9.4 mph15.1 kmh 29.52 in999.7 mb 0.00 in0.0 mm 0.00 in0.0 mm 0.05 in1.3 mm
12:21 PM 43.9°F6.6°C 33.8°F1.0°C 73% 4.3 mph S6.9 kmh S 10.5 mph16.9 kmh 29.51 in999.3 mb 0.00 in0.0 mm 0.00 in0.0 mm 0.05 in1.3 mm
12:42 PM 44.1°F6.7°C 34.0°F1.1°C 73% 3.8 mph S6.1 kmh S 9.4 mph15.1 kmh 29.49 in998.6 mb 0.00 in0.0 mm 0.00 in0.0 mm 0.05 in1.3 mm
01:09 PM 43.9°F6.6°C 33.8°F1.0°C 73% 4.3 mph S6.9 kmh S 9.8 mph15.8 kmh 29.47 in998.0 mb 0.01 in0.3 mm 0.02 in0.5 mm 0.06 in1.5 mm
01:29 PM 43.7°F6.5°C 34.0°F1.1°C 74% 3.8 mph SSW6.1 kmh SSW 10.5 mph16.9 kmh 29.45 in997.3 mb 0.04 in1.0 mm 0.08 in2.0 mm 0.09 in2.3 mm
01:55 PM 43.5°F6.4°C 33.8°F1.0°C 74% 3.8 mph SW6.1 kmh SW 7.4 mph11.9 kmh 29.43 in996.6 mb 0.05 in1.3 mm 0.03 in0.8 mm 0.10 in2.5 mm
02:15 PM 43.2°F6.2°C 33.4°F0.8°C 74% 3.1 mph SSW5.0 kmh SSW 8.1 mph13.0 kmh 29.41 in995.9 mb 0.06 in1.5 mm 0.01 in0.3 mm 0.12 in3.0 mm
02:35 PM 43.2°F6.2°C 33.4°F0.8°C 74% 3.1 mph SSW5.0 kmh SSW 7.4 mph11.9 kmh 29.40 in995.6 mb 0.04 in1.0 mm 0.00 in0.0 mm 0.13 in3.3 mm
02:55 PM 42.8°F6.0°C 33.1°F0.6°C 74% 3.1 mph SSW5.0 kmh SSW 8.1 mph13.0 kmh 29.38 in994.9 mb 0.03 in0.8 mm 0.00 in0.0 mm 0.14 in3.6 mm
03:15 PM 42.8°F6.0°C 33.1°F0.6°C 74% 4.3 mph S6.9 kmh S 9.4 mph15.1 kmh 29.37 in994.6 mb 0.02 in0.5 mm 0.00 in0.0 mm 0.14 in3.6 mm
03:35 PM 42.6°F5.9°C 33.4°F0.8°C 75% 2.5 mph S4.0 kmh S 6.9 mph11.1 kmh 29.37 in994.6 mb 0.01 in0.3 mm 0.00 in0.0 mm 0.15 in3.8 mm
03:41 PM 42.4°F5.8°C 33.3°F0.7°C 75% 1.8 mph SW2.9 kmh SW 3.8 mph6.1 kmh 29.37 in994.6 mb 0.03 in0.8 mm 0.20 in5.1 mm 0.17 in4.3 mm
04:01 PM 42.4°F5.8°C 33.3°F0.7°C 75% 1.3 mph SW2.1 kmh SW 3.1 mph5.0 kmh 29.37 in994.6 mb 0.05 in1.3 mm 0.02 in0.5 mm 0.19 in4.8 mm
04:21 PM 42.4°F5.8°C 33.3°F0.7°C 75% 1.8 mph WSW2.9 kmh WSW 6.9 mph11.1 kmh 29.38 in994.9 mb 0.06 in1.5 mm 0.02 in0.5 mm 0.21 in5.3 mm
04:42 PM 42.4°F5.8°C 33.3°F0.7°C 75% 1.3 mph W2.1 kmh W 1.8 mph2.9 kmh 29.39 in995.3 mb 0.04 in1.0 mm 0.00 in0.0 mm 0.21 in5.3 mm
05:01 PM 42.3°F5.7°C 33.1°F0.6°C 75% 1.3 mph WSW2.1 kmh WSW 3.1 mph5.0 kmh 29.39 in995.3 mb 0.02 in0.5 mm 0.00 in0.0 mm 0.22 in5.6 mm
05:22 PM 42.3°F5.7°C 33.1°F0.6°C 75% 1.8 mph WSW2.9 kmh WSW 4.3 mph6.9 kmh 29.41 in995.9 mb 0.01 in0.3 mm 0.00 in0.0 mm 0.22 in5.6 mm
05:48 PM 42.3°F5.7°C 33.4°F0.8°C 76% 5.6 mph WNW9.0 kmh WNW 19.9 mph32.0 kmh 29.44 in997.0 mb 0.00 in0.0 mm 0.00 in0.0 mm 0.22 in5.6 mm
06:08 PM 41.7°F5.4°C 32.9°F0.5°C 76% 4.9 mph WNW7.9 kmh WNW 11.9 mph19.2 kmh 29.46 in997.6 mb 0.00 in0.0 mm 0.00 in0.0 mm 0.22 in5.6 mm
06:28 PM 41.4°F5.2°C 32.5°F0.3°C 76% 4.3 mph WNW6.9 kmh WNW 9.4 mph15.1 kmh 29.49 in998.6 mb 0.00 in0.0 mm 0.00 in0.0 mm 0.22 in5.6 mm
06:49 PM 41.4°F5.2°C 32.5°F0.3°C 76% 3.8 mph WNW6.1 kmh WNW 8.1 mph13.0 kmh 29.51 in999.3 mb 0.00 in0.0 mm 0.00 in0.0 mm 0.22 in5.6 mm
07:15 PM 41.4°F5.2°C 32.5°F0.3°C 76% 4.3 mph WNW6.9 kmh WNW 11.9 mph19.2 kmh 29.52 in999.7 mb 0.00 in0.0 mm 0.00 in0.0 mm 0.22 in5.6 mm
07:35 PM 41.2°F5.1°C 32.4°F0.2°C 76% 3.8 mph W6.1 kmh W 8.7 mph14.0 kmh 29.54 in1000.3 mb 0.00 in0.0 mm 0.00 in0.0 mm 0.22 in5.6 mm
07:55 PM 41.4°F5.2°C 32.9°F0.5°C 77% 4.3 mph W6.9 kmh W 10.5 mph16.9 kmh 29.55 in1000.7 mb 0.00 in0.0 mm 0.00 in0.0 mm 0.22 in5.6 mm
08:15 PM 41.5°F5.3°C 33.1°F0.6°C 77% 4.3 mph W6.9 kmh W 11.2 mph18.0 kmh 29.57 in1001.4 mb 0.00 in0.0 mm 0.00 in0.0 mm 0.22 in5.6 mm
08:24 PM 41.9°F5.5°C 33.4°F0.8°C 77% 4.3 mph W6.9 kmh W 9.8 mph15.8 kmh 29.59 in1002.0 mb 0.00 in0.0 mm 0.00 in0.0 mm 0.22 in5.6 mm
08:43 PM 42.1°F5.6°C 33.6°F0.9°C 77% 4.3 mph W6.9 kmh W 9.8 mph15.8 kmh 29.61 in1002.7 mb 0.00 in0.0 mm 0.00 in0.0 mm 0.22 in5.6 mm
09:04 PM 42.3°F5.7°C 33.8°F1.0°C 77% 4.9 mph W7.9 kmh W 11.2 mph18.0 kmh 29.61 in1002.7 mb 0.00 in0.0 mm 0.01 in0.3 mm 0.22 in5.6 mm
09:24 PM 42.4°F5.8°C 34.0°F1.1°C 77% 4.9 mph W7.9 kmh W 13.0 mph20.9 kmh 29.63 in1003.4 mb 0.00 in0.0 mm 0.00 in0.0 mm 0.22 in5.6 mm
09:42 PM 42.4°F5.8°C 34.0°F1.1°C 77% 3.8 mph W6.1 kmh W 10.5 mph16.9 kmh 29.63 in1003.4 mb 0.00 in0.0 mm 0.00 in0.0 mm 0.22 in5.6 mm
10:02 PM 42.4°F5.8°C 34.0°F1.1°C 77% 4.3 mph WSW6.9 kmh WSW 10.5 mph16.9 kmh 29.65 in1004.1 mb 0.00 in0.0 mm 0.00 in0.0 mm 0.22 in5.6 mm
10:22 PM 43.0°F6.1°C 34.2°F1.2°C 76% 4.3 mph W6.9 kmh W 10.5 mph16.9 kmh 29.66 in1004.4 mb 0.00 in0.0 mm 0.00 in0.0 mm 0.22 in5.6 mm
10:42 PM 43.5°F6.4°C 34.7°F1.5°C 76% 4.3 mph WSW6.9 kmh WSW 12.5 mph20.1 kmh 29.67 in1004.7 mb 0.00 in0.0 mm 0.00 in0.0 mm 0.22 in5.6 mm
11:03 PM 43.9°F6.6°C 34.5°F1.4°C 75% 4.3 mph WSW6.9 kmh WSW 11.9 mph19.2 kmh 29.68 in1005.1 mb 0.00 in0.0 mm 0.00 in0.0 mm 0.22 in5.6 mm
11:22 PM 44.2°F6.8°C 34.5°F1.4°C 74% 5.6 mph W9.0 kmh W 12.5 mph20.1 kmh 29.68 in1005.1 mb 0.00 in0.0 mm 0.00 in0.0 mm 0.22 in5.6 mm
11:43 PM 44.6°F7.0°C 34.2°F1.2°C 72% 4.9 mph W7.9 kmh W 13.0 mph20.9 kmh 29.69 in1005.4 mb 0.00 in0.0 mm 0.00 in0.0 mm 0.22 in5.6 mm